sensor_id;sensor_type;location;lat;lon;timestamp;temperature;humidity
4054;DHT22;2042;47.956;9.222;2023-02-01T00:00:34;1.40;1.00
4054;DHT22;2042;47.956;9.222;2023-02-01T00:03:00;1.40;1.00
4054;DHT22;2042;47.956;9.222;2023-02-01T00:05:26;1.40;1.00
4054;DHT22;2042;47.956;9.222;2023-02-01T00:07:51;1.40;1.00
4054;DHT22;2042;47.956;9.222;2023-02-01T00:10:17;1.40;1.00
4054;DHT22;2042;47.956;9.222;2023-02-01T00:12:44;1.40;1.00
4054;DHT22;2042;47.956;9.222;2023-02-01T00:15:10;1.50;1.00
4054;DHT22;2042;47.956;9.222;2023-02-01T00:17:35;1.40;1.00
4054;DHT22;2042;47.956;9.222;2023-02-01T00:20:01;1.40;1.00
4054;DHT22;2042;47.956;9.222;2023-02-01T00:22:28;1.40;1.00
4054;DHT22;2042;47.956;9.222;2023-02-01T00:24:54;1.40;1.00
4054;DHT22;2042;47.956;9.222;2023-02-01T00:27:19;1.40;1.00
4054;DHT22;2042;47.956;9.222;2023-02-01T00:29:46;1.40;1.00
4054;DHT22;2042;47.956;9.222;2023-02-01T00:32:12;1.40;1.00
4054;DHT22;2042;47.956;9.222;2023-02-01T00:34:38;1.40;1.00
4054;DHT22;2042;47.956;9.222;2023-02-01T00:37:04;1.40;1.00
4054;DHT22;2042;47.956;9.222;2023-02-01T00:39:29;1.50;1.00
4054;DHT22;2042;47.956;9.222;2023-02-01T00:41:55;1.50;1.00
4054;DHT22;2042;47.956;9.222;2023-02-01T00:44:20;1.50;1.00
4054;DHT22;2042;47.956;9.222;2023-02-01T00:46:46;1.50;1.00
4054;DHT22;2042;47.956;9.222;2023-02-01T00:49:12;1.50;1.00
4054;DHT22;2042;47.956;9.222;2023-02-01T00:51:37;1.50;1.00
4054;DHT22;2042;47.956;9.222;2023-02-01T00:54:03;1.50;1.00
4054;DHT22;2042;47.956;9.222;2023-02-01T00:56:29;1.50;1.00
4054;DHT22;2042;47.956;9.222;2023-02-01T00:58:55;1.50;1.00
4054;DHT22;2042;47.956;9.222;2023-02-01T01:01:23;1.50;1.00
4054;DHT22;2042;47.956;9.222;2023-02-01T01:03:56;1.50;1.00
4054;DHT22;2042;47.956;9.222;2023-02-01T01:06:24;1.50;1.00
4054;DHT22;2042;47.956;9.222;2023-02-01T01:08:52;1.50;1.00
4054;DHT22;2042;47.956;9.222;2023-02-01T01:11:20;1.50;1.00
4054;DHT22;2042;47.956;9.222;2023-02-01T01:13:48;1.50;1.00
4054;DHT22;2042;47.956;9.222;2023-02-01T01:16:14;1.50;1.00
4054;DHT22;2042;47.956;9.222;2023-02-01T01:18:40;1.50;1.00
4054;DHT22;2042;47.956;9.222;2023-02-01T01:21:07;1.50;1.00
4054;DHT22;2042;47.956;9.222;2023-02-01T01:23:34;1.40;1.00
4054;DHT22;2042;47.956;9.222;2023-02-01T01:26:04;1.40;1.00
4054;DHT22;2042;47.956;9.222;2023-02-01T01:28:30;1.30;1.00
4054;DHT22;2042;47.956;9.222;2023-02-01T01:30:55;1.30;1.00
4054;DHT22;2042;47.956;9.222;2023-02-01T01:33:21;1.20;1.00
4054;DHT22;2042;47.956;9.222;2023-02-01T01:35:46;1.20;1.00
4054;DHT22;2042;47.956;9.222;2023-02-01T01:38:12;1.20;1.00
4054;DHT22;2042;47.956;9.222;2023-02-01T01:40:38;1.10;1.00
4054;DHT22;2042;47.956;9.222;2023-02-01T01:43:13;1.00;1.00
4054;DHT22;2042;47.956;9.222;2023-02-01T01:45:39;1.00;1.00
4054;DHT22;2042;47.956;9.222;2023-02-01T01:48:08;0.90;1.00
4054;DHT22;2042;47.956;9.222;2023-02-01T01:50:41;0.80;1.00
4054;DHT22;2042;47.956;9.222;2023-02-01T01:53:11;0.80;1.00
4054;DHT22;2042;47.956;9.222;2023-02-01T01:55:40;0.70;1.00
4054;DHT22;2042;47.956;9.222;2023-02-01T01:58:16;0.70;1.00
4054;DHT22;2042;47.956;9.222;2023-02-01T02:00:44;0.70;1.00
4054;DHT22;2042;47.956;9.222;2023-02-01T02:03:53;0.60;1.00
4054;DHT22;2042;47.956;9.222;2023-02-01T02:06:33;0.60;1.00
4054;DHT22;2042;47.956;9.222;2023-02-01T02:09:02;0.60;1.00
4054;DHT22;2042;47.956;9.222;2023-02-01T02:11:28;0.60;1.00
4054;DHT22;2042;47.956;9.222;2023-02-01T02:13:55;0.60;1.00
4054;DHT22;2042;47.956;9.222;2023-02-01T02:41:39;1.00;1.80
4054;DHT22;2042;47.956;9.222;2023-02-01T02:44:48;1.10;1.10
4054;DHT22;2042;47.956;9.222;2023-02-01T02:48:20;1.00;1.00
4054;DHT22;2042;47.956;9.222;2023-02-01T02:50:28;1.00;1.00
4054;DHT22;2042;47.956;9.222;2023-02-01T02:53:19;1.00;1.00
4054;DHT22;2042;47.956;9.222;2023-02-01T02:56:07;1.10;1.00
4054;DHT22;2042;47.956;9.222;2023-02-01T02:58:53;1.10;1.40
4054;DHT22;2042;47.956;9.222;2023-02-01T03:01:38;1.10;1.00
4054;DHT22;2042;47.956;9.222;2023-02-01T03:04:23;1.20;1.00
4054;DHT22;2042;47.956;9.222;2023-02-01T03:06:52;1.20;1.00
4054;DHT22;2042;47.956;9.222;2023-02-01T03:09:30;1.20;1.00
4054;DHT22;2042;47.956;9.222;2023-02-01T03:12:01;1.20;1.00
4054;DHT22;2042;47.956;9.222;2023-02-01T03:14:52;1.20;1.00
4054;DHT22;2042;47.956;9.222;2023-02-01T03:17:25;1.20;1.00
4054;DHT22;2042;47.956;9.222;2023-02-01T03:19:53;1.20;1.00
4054;DHT22;2042;47.956;9.222;2023-02-01T03:22:23;1.20;1.00
4054;DHT22;2042;47.956;9.222;2023-02-01T03:25:04;1.10;1.00
4054;DHT22;2042;47.956;9.222;2023-02-01T03:27:33;1.20;1.00
4054;DHT22;2042;47.956;9.222;2023-02-01T03:30:19;1.20;1.00
4054;DHT22;2042;47.956;9.222;2023-02-01T03:32:48;1.10;1.00
4054;DHT22;2042;47.956;9.222;2023-02-01T03:38:09;1.10;1.00
4054;DHT22;2042;47.956;9.222;2023-02-01T03:40:38;1.00;1.00
4054;DHT22;2042;47.956;9.222;2023-02-01T03:43:06;1.00;1.00
4054;DHT22;2042;47.956;9.222;2023-02-01T03:45:38;1.00;1.00
4054;DHT22;2042;47.956;9.222;2023-02-01T03:48:08;1.00;1.00
4054;DHT22;2042;47.956;9.222;2023-02-01T03:50:40;1.00;1.00
4054;DHT22;2042;47.956;9.222;2023-02-01T03:53:12;1.00;1.00
4054;DHT22;2042;47.956;9.222;2023-02-01T03:55:40;1.00;1.00
4054;DHT22;2042;47.956;9.222;2023-02-01T03:58:15;0.90;1.00
4054;DHT22;2042;47.956;9.222;2023-02-01T04:00:45;1.00;1.00
4054;DHT22;2042;47.956;9.222;2023-02-01T04:03:11;0.90;1.00
4054;DHT22;2042;47.956;9.222;2023-02-01T04:05:37;0.90;1.00
4054;DHT22;2042;47.956;9.222;2023-02-01T04:08:03;0.90;1.00
4054;DHT22;2042;47.956;9.222;2023-02-01T04:10:30;0.90;1.00
4054;DHT22;2042;47.956;9.222;2023-02-01T04:12:56;0.90;1.00
4054;DHT22;2042;47.956;9.222;2023-02-01T04:15:21;0.90;1.00
4054;DHT22;2042;47.956;9.222;2023-02-01T04:17:47;0.90;1.00
4054;DHT22;2042;47.956;9.222;2023-02-01T04:20:13;0.90;1.00
4054;DHT22;2042;47.956;9.222;2023-02-01T04:22:38;0.90;1.10
4054;DHT22;2042;47.956;9.222;2023-02-01T04:25:04;0.90;1.50
4054;DHT22;2042;47.956;9.222;2023-02-01T04:27:33;0.80;2.20
4054;DHT22;2042;47.956;9.222;2023-02-01T04:29:59;0.90;3.10
4054;DHT22;2042;47.956;9.222;2023-02-01T04:32:25;0.90;4.10
4054;DHT22;2042;47.956;9.222;2023-02-01T04:34:50;0.90;4.20
4054;DHT22;2042;47.956;9.222;2023-02-01T04:37:16;1.00;4.30
4054;DHT22;2042;47.956;9.222;2023-02-01T04:39:42;1.00;4.30
4054;DHT22;2042;47.956;9.222;2023-02-01T04:42:07;1.00;4.30
4054;DHT22;2042;47.956;9.222;2023-02-01T04:44:34;1.00;4.20
4054;DHT22;2042;47.956;9.222;2023-02-01T04:47:02;1.00;4.20
4054;DHT22;2042;47.956;9.222;2023-02-01T04:49:27;1.00;4.60
4054;DHT22;2042;47.956;9.222;2023-02-01T04:51:53;1.00;3.80
4054;DHT22;2042;47.956;9.222;2023-02-01T04:54:19;0.90;3.40
4054;DHT22;2042;47.956;9.222;2023-02-01T04:56:44;0.90;3.10
4054;DHT22;2042;47.956;9.222;2023-02-01T04:59:11;1.00;2.90
4054;DHT22;2042;47.956;9.222;2023-02-01T05:01:37;1.00;2.70
4054;DHT22;2042;47.956;9.222;2023-02-01T05:04:02;1.00;2.50
4054;DHT22;2042;47.956;9.222;2023-02-01T05:06:28;1.00;2.20
4054;DHT22;2042;47.956;9.222;2023-02-01T05:08:54;1.00;1.90
4054;DHT22;2042;47.956;9.222;2023-02-01T05:11:19;1.00;2.00
4054;DHT22;2042;47.956;9.222;2023-02-01T05:14:04;1.00;2.10
4054;DHT22;2042;47.956;9.222;2023-02-01T05:16:29;1.00;2.30
4054;DHT22;2042;47.956;9.222;2023-02-01T05:18:55;1.00;2.40
4054;DHT22;2042;47.956;9.222;2023-02-01T05:21:21;1.00;2.70
4054;DHT22;2042;47.956;9.222;2023-02-01T05:23:46;1.00;3.20
4054;DHT22;2042;47.956;9.222;2023-02-01T05:26:31;1.00;3.90
4054;DHT22;2042;47.956;9.222;2023-02-01T05:28:56;1.00;4.20
4054;DHT22;2042;47.956;9.222;2023-02-01T05:31:23;1.00;5.00
4054;DHT22;2042;47.956;9.222;2023-02-01T05:33:49;1.00;5.50
4054;DHT22;2042;47.956;9.222;2023-02-01T05:36:14;1.00;5.80
4054;DHT22;2042;47.956;9.222;2023-02-01T05:38:40;1.10;6.20
4054;DHT22;2042;47.956;9.222;2023-02-01T05:41:06;1.10;6.40
4054;DHT22;2042;47.956;9.222;2023-02-01T05:43:32;1.10;6.40
4054;DHT22;2042;47.956;9.222;2023-02-01T05:45:57;1.10;6.50
4054;DHT22;2042;47.956;9.222;2023-02-01T05:48:23;1.10;6.10
4054;DHT22;2042;47.956;9.222;2023-02-01T05:50:49;1.10;6.10
4054;DHT22;2042;47.956;9.222;2023-02-01T05:53:14;1.10;6.70
4054;DHT22;2042;47.956;9.222;2023-02-01T05:55:41;1.10;7.30
4054;DHT22;2042;47.956;9.222;2023-02-01T05:58:07;1.10;7.50
4054;DHT22;2042;47.956;9.222;2023-02-01T06:00:33;1.20;7.90
4054;DHT22;2042;47.956;9.222;2023-02-01T06:02:58;1.10;8.00
4054;DHT22;2042;47.956;9.222;2023-02-01T06:05:24;1.20;8.10
4054;DHT22;2042;47.956;9.222;2023-02-01T06:07:49;1.10;8.20
4054;DHT22;2042;47.956;9.222;2023-02-01T06:10:19;1.20;8.70
4054;DHT22;2042;47.956;9.222;2023-02-01T06:12:45;1.20;9.00
4054;DHT22;2042;47.956;9.222;2023-02-01T06:15:12;1.20;9.10
4054;DHT22;2042;47.956;9.222;2023-02-01T06:17:41;1.20;9.90
4054;DHT22;2042;47.956;9.222;2023-02-01T06:20:07;1.30;9.60
4054;DHT22;2042;47.956;9.222;2023-02-01T06:22:33;1.30;9.70
4054;DHT22;2042;47.956;9.222;2023-02-01T06:25:02;1.30;9.60
4054;DHT22;2042;47.956;9.222;2023-02-01T06:27:27;1.30;9.60
4054;DHT22;2042;47.956;9.222;2023-02-01T06:29:53;1.30;9.50
4054;DHT22;2042;47.956;9.222;2023-02-01T06:32:20;1.30;9.20
4054;DHT22;2042;47.956;9.222;2023-02-01T06:34:46;1.20;9.10
4054;DHT22;2042;47.956;9.222;2023-02-01T06:37:12;1.20;9.10
4054;DHT22;2042;47.956;9.222;2023-02-01T06:39:37;1.20;9.30
4054;DHT22;2042;47.956;9.222;2023-02-01T06:42:04;1.20;9.50
4054;DHT22;2042;47.956;9.222;2023-02-01T06:44:29;1.20;9.80
4054;DHT22;2042;47.956;9.222;2023-02-01T06:46:55;1.20;9.90
4054;DHT22;2042;47.956;9.222;2023-02-01T06:49:21;1.20;10.30
4054;DHT22;2042;47.956;9.222;2023-02-01T06:51:47;1.30;10.90
4054;DHT22;2042;47.956;9.222;2023-02-01T06:54:12;1.30;11.00
4054;DHT22;2042;47.956;9.222;2023-02-01T06:56:38;1.30;11.00
4054;DHT22;2042;47.956;9.222;2023-02-01T06:59:05;1.40;10.90
4054;DHT22;2042;47.956;9.222;2023-02-01T07:01:31;1.40;10.20
4054;DHT22;2042;47.956;9.222;2023-02-01T07:03:56;1.40;9.50
4054;DHT22;2042;47.956;9.222;2023-02-01T07:06:22;1.30;8.60
4054;DHT22;2042;47.956;9.222;2023-02-01T07:08:48;1.30;8.10
4054;DHT22;2042;47.956;9.222;2023-02-01T07:11:15;1.40;7.70
4054;DHT22;2042;47.956;9.222;2023-02-01T07:13:41;1.40;6.90
4054;DHT22;2042;47.956;9.222;2023-02-01T07:16:11;1.40;5.90
4054;DHT22;2042;47.956;9.222;2023-02-01T07:18:37;1.40;4.80
4054;DHT22;2042;47.956;9.222;2023-02-01T07:21:02;1.40;4.20
4054;DHT22;2042;47.956;9.222;2023-02-01T07:23:28;1.40;3.10
4054;DHT22;2042;47.956;9.222;2023-02-01T07:26:00;1.40;2.20
4054;DHT22;2042;47.956;9.222;2023-02-01T07:28:28;1.40;1.30
4054;DHT22;2042;47.956;9.222;2023-02-01T07:30:54;1.40;1.00
4054;DHT22;2042;47.956;9.222;2023-02-01T07:33:21;1.40;1.00
4054;DHT22;2042;47.956;9.222;2023-02-01T07:35:48;1.50;1.00
4054;DHT22;2042;47.956;9.222;2023-02-01T07:38:14;1.50;1.00
4054;DHT22;2042;47.956;9.222;2023-02-01T07:40:40;1.50;1.00
4054;DHT22;2042;47.956;9.222;2023-02-01T07:43:06;1.50;1.00
4054;DHT22;2042;47.956;9.222;2023-02-01T07:45:34;1.50;1.00
4054;DHT22;2042;47.956;9.222;2023-02-01T07:47:59;1.50;1.00
4054;DHT22;2042;47.956;9.222;2023-02-01T07:50:25;1.60;1.00
4054;DHT22;2042;47.956;9.222;2023-02-01T07:52:53;1.60;1.00
4054;DHT22;2042;47.956;9.222;2023-02-01T07:55:20;1.70;1.00
4054;DHT22;2042;47.956;9.222;2023-02-01T07:57:47;1.70;1.00
4054;DHT22;2042;47.956;9.222;2023-02-01T08:00:13;1.70;1.00
4054;DHT22;2042;47.956;9.222;2023-02-01T08:02:58;1.70;1.00
4054;DHT22;2042;47.956;9.222;2023-02-01T08:05:24;1.80;1.00
4054;DHT22;2042;47.956;9.222;2023-02-01T08:07:50;1.80;1.00
4054;DHT22;2042;47.956;9.222;2023-02-01T08:10:17;1.80;1.00
4054;DHT22;2042;47.956;9.222;2023-02-01T08:12:42;1.80;1.00
4054;DHT22;2042;47.956;9.222;2023-02-01T08:15:09;1.80;1.00
4054;DHT22;2042;47.956;9.222;2023-02-01T08:17:36;1.80;1.00
4054;DHT22;2042;47.956;9.222;2023-02-01T08:20:03;1.80;1.00
4054;DHT22;2042;47.956;9.222;2023-02-01T08:22:32;1.90;1.00
4054;DHT22;2042;47.956;9.222;2023-02-01T08:24:58;1.90;1.00
4054;DHT22;2042;47.956;9.222;2023-02-01T08:27:27;1.90;1.00
4054;DHT22;2042;47.956;9.222;2023-02-01T08:29:52;1.90;1.00
4054;DHT22;2042;47.956;9.222;2023-02-01T08:32:19;1.90;1.00
4054;DHT22;2042;47.956;9.222;2023-02-01T08:34:45;2.00;1.00
4054;DHT22;2042;47.956;9.222;2023-02-01T08:37:10;1.90;1.00
4054;DHT22;2042;47.956;9.222;2023-02-01T08:39:37;1.90;1.00
4054;DHT22;2042;47.956;9.222;2023-02-01T08:42:03;1.90;1.00
4054;DHT22;2042;47.956;9.222;2023-02-01T08:44:48;1.90;1.00
4054;DHT22;2042;47.956;9.222;2023-02-01T08:47:13;1.90;1.00
4054;DHT22;2042;47.956;9.222;2023-02-01T08:49:39;1.90;1.00
4054;DHT22;2042;47.956;9.222;2023-02-01T08:52:05;1.90;1.00
4054;DHT22;2042;47.956;9.222;2023-02-01T08:54:30;1.90;1.00
4054;DHT22;2042;47.956;9.222;2023-02-01T08:56:56;1.90;1.00
4054;DHT22;2042;47.956;9.222;2023-02-01T08:59:21;1.90;1.00
4054;DHT22;2042;47.956;9.222;2023-02-01T09:01:47;1.90;1.00
4054;DHT22;2042;47.956;9.222;2023-02-01T09:04:13;1.90;1.00
4054;DHT22;2042;47.956;9.222;2023-02-01T09:06:40;1.90;1.00
4054;DHT22;2042;47.956;9.222;2023-02-01T09:09:06;2.00;1.00
4054;DHT22;2042;47.956;9.222;2023-02-01T09:11:32;2.00;1.00
4054;DHT22;2042;47.956;9.222;2023-02-01T09:13:58;2.00;1.00
4054;DHT22;2042;47.956;9.222;2023-02-01T09:16:23;2.00;1.00
4054;DHT22;2042;47.956;9.222;2023-02-01T09:18:49;2.00;1.00
4054;DHT22;2042;47.956;9.222;2023-02-01T09:21:14;2.00;1.00
4054;DHT22;2042;47.956;9.222;2023-02-01T09:23:40;2.10;1.00
4054;DHT22;2042;47.956;9.222;2023-02-01T09:26:06;2.20;1.00
4054;DHT22;2042;47.956;9.222;2023-02-01T09:28:32;2.30;1.00
4054;DHT22;2042;47.956;9.222;2023-02-01T09:30:59;2.30;1.00
4054;DHT22;2042;47.956;9.222;2023-02-01T09:33:27;2.30;1.00
4054;DHT22;2042;47.956;9.222;2023-02-01T09:36:00;2.20;1.00
4054;DHT22;2042;47.956;9.222;2023-02-01T09:38:27;2.20;1.00
4054;DHT22;2042;47.956;9.222;2023-02-01T09:40:53;2.20;1.00
4054;DHT22;2042;47.956;9.222;2023-02-01T09:43:41;2.20;1.00
4054;DHT22;2042;47.956;9.222;2023-02-01T09:46:23;2.20;1.00
4054;DHT22;2042;47.956;9.222;2023-02-01T09:48:54;2.40;1.00
4054;DHT22;2042;47.956;9.222;2023-02-01T09:51:24;2.50;1.00
4054;DHT22;2042;47.956;9.222;2023-02-01T09:54:15;2.80;1.00
4054;DHT22;2042;47.956;9.222;2023-02-01T09:56:46;3.10;1.00
4054;DHT22;2042;47.956;9.222;2023-02-01T10:01:43;3.40;1.00
4054;DHT22;2042;47.956;9.222;2023-02-01T10:04:12;3.40;1.00
4054;DHT22;2042;47.956;9.222;2023-02-01T10:15:30;4.50;1.00
4054;DHT22;2042;47.956;9.222;2023-02-01T10:26:23;4.60;1.00
4054;DHT22;2042;47.956;9.222;2023-02-01T10:31:18;3.90;1.00
4054;DHT22;2042;47.956;9.222;2023-02-01T10:33:55;3.80;1.00
4054;DHT22;2042;47.956;9.222;2023-02-01T10:38:57;3.60;1.00
4054;DHT22;2042;47.956;9.222;2023-02-01T10:41:27;3.50;1.00
4054;DHT22;2042;47.956;9.222;2023-02-01T10:43:58;3.50;1.00
4054;DHT22;2042;47.956;9.222;2023-02-01T10:46:25;3.60;1.00
4054;DHT22;2042;47.956;9.222;2023-02-01T10:48:53;3.70;1.00
4054;DHT22;2042;47.956;9.222;2023-02-01T10:51:24;3.70;1.00
4054;DHT22;2042;47.956;9.222;2023-02-01T10:54:01;3.70;1.00
4054;DHT22;2042;47.956;9.222;2023-02-01T10:56:29;3.70;1.00
4054;DHT22;2042;47.956;9.222;2023-02-01T10:59:03;3.80;1.00
4054;DHT22;2042;47.956;9.222;2023-02-01T11:01:44;3.80;1.00
4054;DHT22;2042;47.956;9.222;2023-02-01T11:04:15;3.90;1.00
4054;DHT22;2042;47.956;9.222;2023-02-01T11:06:44;4.00;1.00
4054;DHT22;2042;47.956;9.222;2023-02-01T11:09:18;4.00;1.00
4054;DHT22;2042;47.956;9.222;2023-02-01T11:16:57;4.00;1.00
4054;DHT22;2042;47.956;9.222;2023-02-01T11:19:23;3.90;1.00
4054;DHT22;2042;47.956;9.222;2023-02-01T11:21:56;3.80;1.00
4054;DHT22;2042;47.956;9.222;2023-02-01T11:26:55;3.70;1.00
4054;DHT22;2042;47.956;9.222;2023-02-01T11:29:25;3.70;1.00
4054;DHT22;2042;47.956;9.222;2023-02-01T11:31:57;3.60;1.00
4054;DHT22;2042;47.956;9.222;2023-02-01T11:34:26;3.50;1.00
4054;DHT22;2042;47.956;9.222;2023-02-01T11:36:58;3.50;1.00
4054;DHT22;2042;47.956;9.222;2023-02-01T11:39:29;3.50;1.00
4054;DHT22;2042;47.956;9.222;2023-02-01T11:42:15;3.60;1.00
4054;DHT22;2042;47.956;9.222;2023-02-01T11:44:45;3.60;1.00
4054;DHT22;2042;47.956;9.222;2023-02-01T11:50:08;3.60;1.00
4054;DHT22;2042;47.956;9.222;2023-02-01T11:53:01;3.60;1.00
4054;DHT22;2042;47.956;9.222;2023-02-01T12:06:42;3.70;1.00
4054;DHT22;2042;47.956;9.222;2023-02-01T12:09:27;3.80;1.00
4054;DHT22;2042;47.956;9.222;2023-02-01T12:22:44;4.20;1.00
4054;DHT22;2042;47.956;9.222;2023-02-01T12:36:46;4.00;1.00
4054;DHT22;2042;47.956;9.222;2023-02-01T12:39:20;3.90;1.00
4054;DHT22;2042;47.956;9.222;2023-02-01T12:42:03;3.90;1.00
4054;DHT22;2042;47.956;9.222;2023-02-01T12:44:52;3.90;1.00
4054;DHT22;2042;47.956;9.222;2023-02-01T12:47:44;3.90;1.00
4054;DHT22;2042;47.956;9.222;2023-02-01T12:52:54;4.00;1.00
4054;DHT22;2042;47.956;9.222;2023-02-01T12:55:33;3.90;1.00
4054;DHT22;2042;47.956;9.222;2023-02-01T13:00:45;3.90;1.00
4054;DHT22;2042;47.956;9.222;2023-02-01T13:03:26;3.90;1.00
4054;DHT22;2042;47.956;9.222;2023-02-01T13:06:09;3.90;1.00
4054;DHT22;2042;47.956;9.222;2023-02-01T13:11:16;3.90;1.00
4054;DHT22;2042;47.956;9.222;2023-02-01T13:14:01;3.80;1.00
4054;DHT22;2042;47.956;9.222;2023-02-01T13:30:18;3.80;1.00
4054;DHT22;2042;47.956;9.222;2023-02-01T13:35:39;3.90;1.00
4054;DHT22;2042;47.956;9.222;2023-02-01T13:39:19;4.00;1.00
4054;DHT22;2042;47.956;9.222;2023-02-01T13:41:35;4.00;1.00
4054;DHT22;2042;47.956;9.222;2023-02-01T13:44:13;4.00;1.00
4054;DHT22;2042;47.956;9.222;2023-02-01T13:46:43;3.90;1.00
4054;DHT22;2042;47.956;9.222;2023-02-01T13:49:22;3.90;1.00
4054;DHT22;2042;47.956;9.222;2023-02-01T13:51:53;3.90;1.00
4054;DHT22;2042;47.956;9.222;2023-02-01T13:56:51;3.80;1.00
4054;DHT22;2042;47.956;9.222;2023-02-01T14:05:11;4.10;1.00
4054;DHT22;2042;47.956;9.222;2023-02-01T14:10:59;4.10;1.00
4054;DHT22;2042;47.956;9.222;2023-02-01T14:21:31;4.40;1.00
4054;DHT22;2042;47.956;9.222;2023-02-01T14:26:53;4.40;1.00
4054;DHT22;2042;47.956;9.222;2023-02-01T14:29:33;4.40;1.00
4054;DHT22;2042;47.956;9.222;2023-02-01T14:54:15;3.80;1.00
4054;DHT22;2042;47.956;9.222;2023-02-01T14:56:45;3.80;1.00
4054;DHT22;2042;47.956;9.222;2023-02-01T14:59:14;3.70;1.00
4054;DHT22;2042;47.956;9.222;2023-02-01T15:01:50;3.70;1.00
4054;DHT22;2042;47.956;9.222;2023-02-01T15:04:17;3.60;1.00
4054;DHT22;2042;47.956;9.222;2023-02-01T15:06:53;3.60;1.00
4054;DHT22;2042;47.956;9.222;2023-02-01T15:14:46;3.60;1.00
4054;DHT22;2042;47.956;9.222;2023-02-01T15:17:22;3.70;1.00
4054;DHT22;2042;47.956;9.222;2023-02-01T15:19:56;3.60;1.00
4054;DHT22;2042;47.956;9.222;2023-02-01T15:22:22;3.60;1.00
4054;DHT22;2042;47.956;9.222;2023-02-01T15:24:57;3.60;1.00
4054;DHT22;2042;47.956;9.222;2023-02-01T15:27:24;3.60;1.00
4054;DHT22;2042;47.956;9.222;2023-02-01T15:29:50;3.60;1.00
4054;DHT22;2042;47.956;9.222;2023-02-01T15:32:35;3.60;1.00
4054;DHT22;2042;47.956;9.222;2023-02-01T15:35:02;3.50;1.00
4054;DHT22;2042;47.956;9.222;2023-02-01T15:37:28;3.50;1.00
4054;DHT22;2042;47.956;9.222;2023-02-01T15:40:24;3.40;1.00
4054;DHT22;2042;47.956;9.222;2023-02-01T15:42:54;3.40;1.00
4054;DHT22;2042;47.956;9.222;2023-02-01T15:45:25;3.30;1.00
4054;DHT22;2042;47.956;9.222;2023-02-01T15:47:55;3.30;1.00
4054;DHT22;2042;47.956;9.222;2023-02-01T15:50:23;3.30;1.00
4054;DHT22;2042;47.956;9.222;2023-02-01T15:52:53;3.20;1.00
4054;DHT22;2042;47.956;9.222;2023-02-01T15:58:08;3.20;1.00
4054;DHT22;2042;47.956;9.222;2023-02-01T16:00:43;3.10;1.00
4054;DHT22;2042;47.956;9.222;2023-02-01T16:03:39;3.10;1.00
4054;DHT22;2042;47.956;9.222;2023-02-01T16:06:12;3.10;1.00
4054;DHT22;2042;47.956;9.222;2023-02-01T16:08:59;3.00;1.00
4054;DHT22;2042;47.956;9.222;2023-02-01T16:11:31;3.00;1.00
4054;DHT22;2042;47.956;9.222;2023-02-01T16:13:58;3.00;1.00
4054;DHT22;2042;47.956;9.222;2023-02-01T16:16:26;3.00;1.00
4054;DHT22;2042;47.956;9.222;2023-02-01T16:18:52;2.90;1.00
4054;DHT22;2042;47.956;9.222;2023-02-01T16:21:17;2.90;1.00
4054;DHT22;2042;47.956;9.222;2023-02-01T16:23:43;2.90;1.00
4054;DHT22;2042;47.956;9.222;2023-02-01T16:26:09;2.90;1.00
4054;DHT22;2042;47.956;9.222;2023-02-01T16:28:36;2.90;1.00
4054;DHT22;2042;47.956;9.222;2023-02-01T16:31:01;2.90;1.00
4054;DHT22;2042;47.956;9.222;2023-02-01T16:33:27;2.80;1.00
4054;DHT22;2042;47.956;9.222;2023-02-01T16:35:56;2.80;1.00
4054;DHT22;2042;47.956;9.222;2023-02-01T16:38:25;2.80;1.00
4054;DHT22;2042;47.956;9.222;2023-02-01T16:40:51;2.80;1.00
4054;DHT22;2042;47.956;9.222;2023-02-01T16:43:23;2.80;1.00
4054;DHT22;2042;47.956;9.222;2023-02-01T16:45:52;2.80;1.00
4054;DHT22;2042;47.956;9.222;2023-02-01T16:48:22;2.80;1.00
4054;DHT22;2042;47.956;9.222;2023-02-01T16:50:55;2.70;1.00
4054;DHT22;2042;47.956;9.222;2023-02-01T16:53:22;2.70;1.00
4054;DHT22;2042;47.956;9.222;2023-02-01T16:55:48;2.60;1.00
4054;DHT22;2042;47.956;9.222;2023-02-01T16:58:19;2.60;1.00
4054;DHT22;2042;47.956;9.222;2023-02-01T17:00:45;2.60;1.00
4054;DHT22;2042;47.956;9.222;2023-02-01T17:03:11;2.60;1.00
4054;DHT22;2042;47.956;9.222;2023-02-01T17:05:43;2.50;1.00
4054;DHT22;2042;47.956;9.222;2023-02-01T17:08:13;2.50;1.00
4054;DHT22;2042;47.956;9.222;2023-02-01T17:10:40;2.50;1.00
4054;DHT22;2042;47.956;9.222;2023-02-01T17:13:13;2.40;1.00
4054;DHT22;2042;47.956;9.222;2023-02-01T17:15:38;2.40;1.00
4054;DHT22;2042;47.956;9.222;2023-02-01T17:18:05;2.50;1.00
4054;DHT22;2042;47.956;9.222;2023-02-01T17:20:33;2.50;1.00
4054;DHT22;2042;47.956;9.222;2023-02-01T17:22:59;2.50;1.00
4054;DHT22;2042;47.956;9.222;2023-02-01T17:25:26;2.50;1.00
4054;DHT22;2042;47.956;9.222;2023-02-01T17:27:52;2.40;1.00
4054;DHT22;2042;47.956;9.222;2023-02-01T17:30:18;2.40;1.00
4054;DHT22;2042;47.956;9.222;2023-02-01T17:32:44;2.30;1.00
4054;DHT22;2042;47.956;9.222;2023-02-01T17:35:22;2.30;1.00
4054;DHT22;2042;47.956;9.222;2023-02-01T17:37:49;2.30;1.00
4054;DHT22;2042;47.956;9.222;2023-02-01T17:40:16;2.30;1.00
4054;DHT22;2042;47.956;9.222;2023-02-01T17:42:41;2.20;1.00
4054;DHT22;2042;47.956;9.222;2023-02-01T17:47:56;2.30;1.00
4054;DHT22;2042;47.956;9.222;2023-02-01T17:50:24;2.30;1.00
4054;DHT22;2042;47.956;9.222;2023-02-01T17:52:51;2.30;1.00
4054;DHT22;2042;47.956;9.222;2023-02-01T17:55:19;2.30;1.00
4054;DHT22;2042;47.956;9.222;2023-02-01T17:57:46;2.30;1.00
4054;DHT22;2042;47.956;9.222;2023-02-01T18:00:13;2.30;1.00
4054;DHT22;2042;47.956;9.222;2023-02-01T18:02:39;2.30;1.00
4054;DHT22;2042;47.956;9.222;2023-02-01T18:05:24;2.30;1.00
4054;DHT22;2042;47.956;9.222;2023-02-01T18:07:51;2.30;1.00
4054;DHT22;2042;47.956;9.222;2023-02-01T18:10:17;2.40;1.00
4054;DHT22;2042;47.956;9.222;2023-02-01T18:12:43;2.40;1.00
4054;DHT22;2042;47.956;9.222;2023-02-01T18:15:19;2.40;1.00
4054;DHT22;2042;47.956;9.222;2023-02-01T18:17:45;2.40;1.00
4054;DHT22;2042;47.956;9.222;2023-02-01T18:20:16;2.50;1.00
4054;DHT22;2042;47.956;9.222;2023-02-01T18:22:42;2.50;1.00
4054;DHT22;2042;47.956;9.222;2023-02-01T18:25:29;2.50;1.00
4054;DHT22;2042;47.956;9.222;2023-02-01T18:27:58;2.50;1.00
4054;DHT22;2042;47.956;9.222;2023-02-01T18:30:28;2.50;1.00
4054;DHT22;2042;47.956;9.222;2023-02-01T18:32:55;2.60;1.00
4054;DHT22;2042;47.956;9.222;2023-02-01T18:35:30;2.60;1.00
4054;DHT22;2042;47.956;9.222;2023-02-01T18:37:56;2.60;1.00
4054;DHT22;2042;47.956;9.222;2023-02-01T18:40:29;2.60;1.00
4054;DHT22;2042;47.956;9.222;2023-02-01T18:42:56;2.60;1.00
4054;DHT22;2042;47.956;9.222;2023-02-01T18:45:31;2.60;1.00
4054;DHT22;2042;47.956;9.222;2023-02-01T18:47:58;2.60;1.00
4054;DHT22;2042;47.956;9.222;2023-02-01T18:50:25;2.60;1.00
4054;DHT22;2042;47.956;9.222;2023-02-01T18:52:55;2.60;1.00
4054;DHT22;2042;47.956;9.222;2023-02-01T18:55:22;2.60;1.00
4054;DHT22;2042;47.956;9.222;2023-02-01T18:57:48;2.60;1.00
4054;DHT22;2042;47.956;9.222;2023-02-01T19:00:14;2.60;1.00
4054;DHT22;2042;47.956;9.222;2023-02-01T19:02:40;2.60;1.00
4054;DHT22;2042;47.956;9.222;2023-02-01T19:05:08;2.50;1.00
4054;DHT22;2042;47.956;9.222;2023-02-01T19:07:34;2.50;1.00
4054;DHT22;2042;47.956;9.222;2023-02-01T19:10:00;2.50;1.00
4054;DHT22;2042;47.956;9.222;2023-02-01T19:12:27;2.50;1.00
4054;DHT22;2042;47.956;9.222;2023-02-01T19:14:53;2.50;1.00
4054;DHT22;2042;47.956;9.222;2023-02-01T19:17:19;2.50;1.00
4054;DHT22;2042;47.956;9.222;2023-02-01T19:19:44;2.50;1.00
4054;DHT22;2042;47.956;9.222;2023-02-01T19:22:10;2.50;1.00
4054;DHT22;2042;47.956;9.222;2023-02-01T19:24:38;2.40;1.00
4054;DHT22;2042;47.956;9.222;2023-02-01T19:27:03;2.40;1.00
4054;DHT22;2042;47.956;9.222;2023-02-01T19:29:29;2.40;1.00
4054;DHT22;2042;47.956;9.222;2023-02-01T19:31:55;2.40;1.00
4054;DHT22;2042;47.956;9.222;2023-02-01T19:34:21;2.40;1.00
4054;DHT22;2042;47.956;9.222;2023-02-01T19:36:47;2.50;1.00
4054;DHT22;2042;47.956;9.222;2023-02-01T19:39:14;2.50;1.00
4054;DHT22;2042;47.956;9.222;2023-02-01T19:41:40;2.50;1.00
4054;DHT22;2042;47.956;9.222;2023-02-01T19:44:06;2.50;1.00
4054;DHT22;2042;47.956;9.222;2023-02-01T19:46:32;2.50;1.00